createdAt,value
2019-03-18T00:00:23.367Z,99.90
2019-03-18T00:02:51.874Z,99.90
2019-03-18T00:05:20.337Z,99.90
2019-03-18T00:07:48.791Z,99.90
2019-03-18T00:10:17.327Z,99.90
2019-03-18T00:12:45.870Z,99.90
2019-03-18T00:15:14.313Z,99.90
2019-03-18T00:17:42.954Z,99.90
2019-03-18T00:20:12.143Z,99.90
2019-03-18T00:22:40.594Z,99.90
2019-03-18T00:25:11.287Z,99.90
2019-03-18T00:27:39.824Z,99.90
2019-03-18T00:30:11.499Z,99.90
2019-03-18T00:32:39.947Z,99.90
2019-03-18T00:35:08.866Z,99.90
2019-03-18T00:37:37.309Z,99.90
2019-03-18T00:40:08.700Z,99.90
2019-03-18T00:42:37.143Z,99.90
2019-03-18T00:45:14.638Z,99.90
2019-03-18T00:47:38.117Z,99.90
2019-03-18T00:50:09.867Z,99.90
2019-03-18T00:52:38.325Z,99.90
2019-03-18T00:55:08.678Z,99.90
2019-03-18T00:57:37.130Z,99.90
2019-03-18T01:00:11.684Z,99.90
2019-03-18T01:02:40.138Z,99.90
2019-03-18T01:05:08.835Z,99.90
2019-03-18T01:07:37.354Z,99.90
2019-03-18T01:10:14.945Z,99.90
2019-03-18T01:12:43.670Z,99.90
2019-03-18T01:15:12.971Z,99.90
2019-03-18T01:17:41.432Z,99.90
2019-03-18T01:20:12.112Z,99.90
2019-03-18T01:22:40.705Z,99.90
2019-03-18T01:25:10.389Z,99.90
2019-03-18T01:27:38.916Z,99.90
2019-03-18T01:30:14.953Z,99.90
2019-03-18T01:32:43.554Z,99.90
2019-03-18T01:35:12.301Z,99.90
2019-03-18T01:37:40.820Z,99.90
2019-03-18T01:40:15.987Z,99.90
2019-03-18T01:42:44.434Z,99.90
2019-03-18T01:45:13.429Z,99.90
2019-03-18T01:47:41.878Z,99.90
2019-03-18T01:50:14.856Z,99.90
2019-03-18T01:52:43.471Z,99.90
2019-03-18T01:55:12.183Z,99.90
2019-03-18T01:57:40.631Z,99.90
2019-03-18T02:00:11.688Z,99.90
2019-03-18T02:02:40.163Z,99.90
2019-03-18T02:05:10.368Z,99.90
2019-03-18T02:07:38.958Z,99.90
2019-03-18T02:10:15.760Z,99.90
2019-03-18T02:12:44.405Z,99.90
2019-03-18T02:15:14.964Z,99.90
2019-03-18T02:17:43.654Z,99.90
2019-03-18T02:20:19.449Z,99.90
2019-03-18T02:22:46.460Z,99.90
2019-03-18T02:25:14.974Z,99.90
2019-03-18T02:27:43.566Z,99.90
2019-03-18T02:30:17.514Z,99.90
2019-03-18T02:32:46.058Z,99.90
2019-03-18T02:35:14.588Z,99.90
2019-03-18T02:37:43.120Z,99.90
2019-03-18T02:40:12.424Z,99.90
2019-03-18T02:42:40.874Z,99.90
2019-03-18T02:45:10.884Z,99.90
2019-03-18T02:47:39.411Z,99.90
2019-03-18T02:50:09.485Z,99.90
2019-03-18T02:52:38.019Z,99.90
2019-03-18T02:55:07.790Z,99.90
2019-03-18T02:57:36.334Z,99.90
2019-03-18T03:00:13.105Z,99.90
2019-03-18T03:02:41.670Z,99.90
2019-03-18T03:05:12.057Z,99.90
2019-03-18T03:07:40.574Z,99.90
2019-03-18T03:10:11.552Z,99.90
2019-03-18T03:12:59.397Z,99.90
2019-03-18T03:15:28.246Z,99.90
2019-03-18T03:17:56.698Z,99.90
2019-03-18T03:20:25.227Z,99.90
2019-03-18T03:22:53.677Z,99.90
2019-03-18T03:25:24.901Z,99.90
2019-03-18T03:27:52.326Z,99.90
2019-03-18T03:30:21.004Z,99.90
2019-03-18T03:32:49.533Z,99.90
2019-03-18T03:35:18.110Z,99.90
2019-03-18T03:37:46.704Z,99.90
2019-03-18T03:40:15.340Z,99.90
2019-03-18T03:42:43.865Z,99.90
2019-03-18T03:45:14.024Z,99.90
2019-03-18T03:47:42.568Z,99.90
2019-03-18T03:50:13.125Z,99.90
2019-03-18T03:52:41.672Z,99.90
2019-03-18T03:55:14.258Z,99.90
2019-03-18T03:57:42.948Z,99.90
2019-03-18T04:00:17.515Z,99.90
2019-03-18T04:02:46.130Z,99.90
2019-03-18T04:05:14.661Z,99.90
2019-03-18T04:07:43.438Z,99.90
2019-03-18T04:10:13.425Z,99.90
2019-03-18T04:12:41.951Z,99.90
2019-03-18T04:15:12.347Z,99.90
2019-03-18T04:17:40.870Z,99.90
2019-03-18T04:20:17.309Z,99.90
2019-03-18T04:22:45.835Z,99.90
2019-03-18T04:25:14.431Z,99.90
2019-03-18T04:27:42.905Z,99.90
2019-03-18T04:30:13.366Z,99.90
2019-03-18T04:32:41.826Z,99.90
2019-03-18T04:35:10.815Z,99.90
2019-03-18T04:37:40.269Z,99.90
2019-03-18T04:40:10.217Z,99.90
2019-03-18T04:42:38.685Z,99.90
2019-03-18T04:45:08.573Z,99.90
2019-03-18T04:47:37.221Z,99.90
2019-03-18T04:50:10.867Z,99.90
2019-03-18T04:52:39.385Z,99.90
2019-03-18T04:55:08.150Z,99.90
2019-03-18T04:57:36.882Z,99.90
2019-03-18T05:00:13.233Z,99.90
2019-03-18T05:02:41.838Z,99.90
2019-03-18T05:05:11.032Z,99.90
2019-03-18T05:07:39.576Z,99.90
2019-03-18T05:10:09.832Z,99.90
2019-03-18T05:12:38.436Z,99.90
2019-03-18T05:15:09.349Z,99.90
2019-03-18T05:17:37.816Z,99.90
2019-03-18T05:20:08.377Z,99.90
2019-03-18T05:22:36.897Z,99.90
2019-03-18T05:25:07.560Z,99.90
2019-03-18T05:27:36.048Z,99.90
2019-03-18T05:30:07.712Z,99.90
2019-03-18T05:32:36.225Z,99.90
2019-03-18T05:35:05.928Z,99.90
2019-03-18T05:37:34.384Z,99.90
2019-03-18T05:40:02.824Z,99.90
2019-03-18T05:42:31.286Z,99.90
2019-03-18T05:44:59.827Z,99.90
2019-03-18T05:47:38.584Z,99.90
2019-03-18T05:49:58.545Z,99.90
2019-03-18T05:52:27.060Z,99.90
2019-03-18T05:54:55.597Z,99.90
2019-03-18T05:57:29.966Z,99.90
2019-03-18T05:59:58.430Z,99.90
2019-03-18T06:02:27.646Z,99.90
2019-03-18T06:04:56.234Z,99.90
2019-03-18T06:07:24.695Z,99.90
2019-03-18T06:09:53.151Z,99.90
2019-03-18T06:12:21.723Z,99.90
2019-03-18T06:14:50.180Z,99.90
2019-03-18T06:17:18.630Z,99.90
2019-03-18T06:19:47.096Z,99.90
2019-03-18T06:22:15.639Z,99.90
2019-03-18T06:24:44.088Z,99.90
2019-03-18T06:27:12.546Z,99.90
2019-03-18T06:29:41.081Z,99.90
2019-03-18T06:32:09.533Z,99.90
2019-03-18T06:34:37.988Z,99.90
2019-03-18T06:37:06.437Z,99.90
2019-03-18T06:39:34.886Z,99.90
2019-03-18T06:42:03.342Z,99.90
2019-03-18T06:44:31.804Z,99.90
2019-03-18T06:47:00.333Z,99.90
2019-03-18T06:49:28.812Z,99.90
2019-03-18T06:51:57.257Z,99.90
2019-03-18T06:54:25.705Z,99.90
2019-03-18T06:56:54.152Z,99.90
2019-03-18T06:59:22.598Z,99.90
2019-03-18T07:01:51.051Z,99.90
2019-03-18T07:04:19.582Z,99.90
2019-03-18T07:06:48.129Z,99.90
2019-03-18T07:09:16.571Z,99.90
2019-03-18T07:11:45.097Z,99.90
2019-03-18T07:14:13.567Z,99.90
2019-03-18T07:16:42.318Z,99.90
2019-03-18T07:19:10.781Z,99.90
2019-03-18T07:21:39.317Z,99.90
2019-03-18T07:24:08.078Z,99.90
2019-03-18T07:26:36.531Z,99.90
2019-03-18T07:29:05.070Z,99.90
2019-03-18T07:31:33.601Z,99.90
2019-03-18T07:34:02.142Z,99.90
2019-03-18T07:36:30.673Z,99.90
2019-03-18T07:38:59.222Z,99.90
2019-03-18T07:41:27.690Z,99.90
2019-03-18T07:43:56.213Z,99.90
2019-03-18T07:46:24.815Z,99.90
2019-03-18T07:48:53.282Z,99.90
2019-03-18T07:51:21.925Z,99.90
2019-03-18T07:53:50.394Z,99.90
2019-03-18T07:56:18.951Z,99.90
2019-03-18T07:58:47.530Z,99.90
2019-03-18T08:01:15.983Z,99.90
2019-03-18T08:03:44.546Z,99.90
2019-03-18T08:06:12.998Z,99.90
2019-03-18T08:08:41.455Z,99.90
2019-03-18T08:11:10.067Z,99.90
2019-03-18T08:13:38.705Z,99.90
2019-03-18T08:16:07.154Z,98.80
2019-03-18T08:18:43.031Z,98.20
2019-03-18T08:21:05.815Z,97.90
2019-03-18T08:23:34.263Z,97.50
2019-03-18T08:26:02.721Z,96.80
2019-03-18T08:28:31.242Z,96.20
2019-03-18T08:30:59.676Z,95.90
2019-03-18T08:33:28.121Z,95.60
2019-03-18T08:35:56.575Z,95.70
2019-03-18T08:38:25.032Z,96.00
2019-03-18T08:40:53.485Z,95.70
2019-03-18T08:43:21.949Z,95.90
2019-03-18T08:45:50.809Z,96.00
2019-03-18T08:48:19.330Z,95.70
2019-03-18T08:50:47.786Z,95.20
2019-03-18T08:53:16.249Z,95.40
2019-03-18T08:55:44.692Z,95.50
2019-03-18T08:58:13.175Z,95.50
2019-03-18T09:00:41.685Z,95.40
2019-03-18T09:03:10.149Z,94.70
2019-03-18T09:05:38.618Z,94.10
2019-03-18T09:08:07.128Z,93.90
2019-03-18T09:10:35.586Z,94.00
2019-03-18T09:13:04.379Z,94.10
2019-03-18T09:15:32.911Z,94.10
2019-03-18T09:18:01.535Z,93.60
2019-03-18T09:20:29.982Z,93.50
2019-03-18T09:23:01.236Z,93.40
2019-03-18T09:25:28.669Z,93.30
2019-03-18T09:27:57.124Z,93.40
2019-03-18T09:30:26.037Z,93.40
2019-03-18T09:32:54.503Z,93.40
2019-03-18T09:35:22.961Z,93.60
2019-03-18T09:37:51.426Z,93.60
2019-03-18T09:40:19.945Z,93.70
2019-03-18T09:42:48.412Z,94.10
2019-03-18T09:45:18.874Z,94.60
2019-03-18T09:47:47.415Z,94.80
2019-03-18T09:50:16.244Z,95.10
2019-03-18T09:52:44.761Z,95.80
2019-03-18T09:55:14.038Z,95.60
2019-03-18T09:57:42.496Z,95.30
2019-03-18T10:00:18.770Z,95.20
2019-03-18T10:02:47.259Z,95.10
2019-03-18T10:05:15.795Z,94.70
2019-03-18T10:07:44.314Z,94.80
2019-03-18T10:10:14.413Z,95.20
2019-03-18T10:12:42.858Z,95.10
2019-03-18T10:15:16.051Z,95.10
2019-03-18T10:17:44.517Z,95.00
2019-03-18T10:20:13.147Z,95.10
2019-03-18T10:22:42.289Z,94.50
2019-03-18T10:25:10.992Z,94.10
2019-03-18T10:27:39.595Z,93.70
2019-03-18T10:30:11.165Z,93.30
2019-03-18T10:32:39.632Z,92.80
2019-03-18T10:35:09.391Z,92.50
2019-03-18T10:37:37.861Z,92.50
2019-03-18T10:40:09.733Z,92.40
2019-03-18T10:42:38.256Z,92.10
2019-03-18T10:45:08.966Z,91.70
2019-03-18T10:47:37.509Z,91.40
2019-03-18T10:50:11.580Z,91.60
2019-03-18T10:52:40.115Z,91.20
2019-03-18T10:55:09.937Z,90.50
2019-03-18T10:57:38.434Z,89.30
2019-03-18T11:00:13.069Z,89.20
2019-03-18T11:02:44.684Z,89.30
2019-03-18T11:05:11.946Z,89.80
2019-03-18T11:07:40.472Z,89.90
2019-03-18T11:10:13.742Z,89.90
2019-03-18T11:12:42.298Z,90.50
2019-03-18T11:15:19.279Z,90.40
2019-03-18T11:17:48.000Z,90.50
2019-03-18T11:20:17.063Z,91.10
2019-03-18T11:22:45.594Z,91.10
2019-03-18T11:25:17.558Z,91.40
2019-03-18T11:27:46.087Z,91.30
2019-03-18T11:30:18.837Z,90.70
2019-03-18T11:32:47.314Z,91.00
2019-03-18T11:35:16.210Z,90.80
2019-03-18T11:37:44.695Z,90.40
2019-03-18T11:40:22.895Z,90.70
2019-03-18T11:42:51.782Z,90.50
2019-03-18T11:45:20.246Z,90.50
2019-03-18T11:47:49.036Z,90.50
2019-03-18T11:50:18.693Z,89.50
2019-03-18T11:52:47.151Z,88.50
2019-03-18T11:55:22.929Z,87.50
2019-03-18T11:57:51.530Z,88.10
2019-03-18T12:00:21.709Z,87.30
2019-03-18T12:02:50.214Z,86.60
2019-03-18T12:05:26.112Z,87.10
2019-03-18T12:07:55.180Z,87.50
2019-03-18T12:10:25.650Z,86.60
2019-03-18T12:12:54.081Z,87.30
2019-03-18T12:15:27.618Z,86.70
2019-03-18T12:17:56.157Z,84.20
2019-03-18T12:20:25.815Z,78.60
2019-03-18T12:22:54.622Z,74.60
2019-03-18T12:25:23.111Z,71.80
2019-03-18T12:27:51.555Z,72.70
2019-03-18T12:30:29.781Z,73.40
2019-03-18T12:32:58.243Z,70.40
2019-03-18T12:35:26.735Z,70.20
2019-03-18T12:37:55.348Z,71.20
2019-03-18T12:40:23.867Z,70.80
2019-03-18T12:42:52.329Z,70.00
2019-03-18T12:45:21.725Z,69.80
2019-03-18T12:47:50.241Z,70.70
2019-03-18T12:50:38.665Z,70.80
2019-03-18T12:52:53.267Z,70.80
2019-03-18T12:55:21.808Z,70.50
2019-03-18T12:57:50.265Z,71.30
2019-03-18T13:00:27.054Z,70.70
2019-03-18T13:02:55.593Z,70.90
2019-03-18T13:05:24.178Z,67.40
2019-03-18T13:07:52.715Z,64.30
2019-03-18T13:10:22.196Z,63.50
2019-03-18T13:12:51.471Z,62.70
2019-03-18T13:15:20.765Z,62.20
2019-03-18T13:17:49.231Z,62.80
2019-03-18T13:20:20.184Z,63.70
2019-03-18T13:22:49.010Z,63.30
2019-03-18T13:25:17.915Z,63.80
2019-03-18T13:27:46.645Z,64.00
2019-03-18T13:30:16.843Z,63.90
2019-03-18T13:32:45.560Z,63.80
2019-03-18T13:35:14.468Z,63.30
2019-03-18T13:37:43.326Z,63.30
2019-03-18T13:40:16.119Z,62.70
2019-03-18T13:42:44.942Z,63.40
2019-03-18T13:45:15.999Z,65.10
2019-03-18T13:47:44.708Z,65.30
2019-03-18T13:50:16.238Z,65.70
2019-03-18T13:52:44.698Z,66.20
2019-03-18T13:55:13.607Z,67.00
2019-03-18T13:57:42.055Z,67.90
2019-03-18T14:00:16.689Z,68.30
2019-03-18T14:02:45.237Z,68.40
2019-03-18T14:05:14.128Z,69.00
2019-03-18T14:07:42.637Z,70.10
2019-03-18T14:10:17.572Z,70.20
2019-03-18T14:12:46.036Z,70.20
2019-03-18T14:15:18.977Z,70.20
2019-03-18T14:17:47.447Z,70.10
2019-03-18T14:20:17.921Z,70.00
2019-03-18T14:22:46.540Z,70.00
2019-03-18T14:25:15.341Z,70.00
2019-03-18T14:27:43.872Z,69.20
2019-03-18T14:30:20.024Z,68.00
2019-03-18T14:32:48.483Z,68.30
2019-03-18T14:35:16.945Z,68.80
2019-03-18T14:37:45.436Z,68.30
2019-03-18T14:40:21.810Z,67.90
2019-03-18T14:42:50.351Z,67.80
2019-03-18T14:45:21.132Z,68.50
2019-03-18T14:47:49.689Z,68.20
2019-03-18T14:50:19.660Z,66.60
2019-03-18T14:52:48.357Z,66.60
2019-03-18T14:55:17.947Z,66.90
2019-03-18T14:57:46.556Z,66.80
2019-03-18T15:00:30.761Z,66.10
2019-03-18T15:02:59.225Z,65.80
2019-03-18T15:05:27.702Z,65.90
2019-03-18T15:07:56.365Z,66.50
2019-03-18T15:10:31.646Z,67.00
2019-03-18T15:13:00.238Z,66.70
2019-03-18T15:15:28.760Z,66.70
2019-03-18T15:17:57.214Z,67.10
2019-03-18T15:20:27.516Z,67.60
2019-03-18T15:22:55.989Z,68.60
2019-03-18T15:25:29.090Z,69.40
2019-03-18T15:27:57.550Z,69.40
2019-03-18T15:30:26.016Z,70.00
2019-03-18T15:32:54.616Z,70.40
2019-03-18T15:35:23.103Z,71.00
2019-03-18T15:37:51.538Z,71.10
2019-03-18T15:40:21.436Z,71.00
2019-03-18T15:42:49.965Z,71.70
2019-03-18T15:45:20.627Z,71.80
2019-03-18T15:47:49.313Z,71.90
2019-03-18T15:50:22.898Z,71.60
2019-03-18T15:52:51.426Z,71.50
2019-03-18T15:55:23.614Z,71.50
2019-03-18T15:57:50.736Z,71.60
2019-03-18T16:00:24.790Z,71.50
2019-03-18T16:02:53.333Z,71.50
2019-03-18T16:05:21.880Z,71.40
2019-03-18T16:07:50.411Z,71.70
2019-03-18T16:10:19.785Z,72.10
2019-03-18T16:12:48.365Z,72.50
2019-03-18T16:15:19.978Z,72.80
2019-03-18T16:17:48.517Z,73.20
2019-03-18T16:20:19.786Z,73.30
2019-03-18T16:22:48.235Z,73.70
2019-03-18T16:25:16.686Z,73.80
2019-03-18T16:27:45.165Z,73.70
2019-03-18T16:30:23.018Z,74.00
2019-03-18T16:32:51.580Z,74.40
2019-03-18T16:35:20.344Z,74.70
2019-03-18T16:37:48.875Z,74.90
2019-03-18T16:40:20.580Z,75.50
2019-03-18T16:42:49.411Z,75.60
2019-03-18T16:45:19.205Z,76.00
2019-03-18T16:47:47.927Z,76.50
2019-03-18T16:50:22.437Z,77.00
2019-03-18T16:52:50.891Z,77.40
2019-03-18T16:55:19.521Z,77.90
2019-03-18T16:57:48.016Z,78.40
2019-03-18T17:00:19.544Z,78.30
2019-03-18T17:02:48.099Z,78.70
2019-03-18T17:05:16.735Z,79.30
2019-03-18T17:07:45.193Z,79.80
2019-03-18T17:10:15.311Z,80.10
2019-03-18T17:12:44.184Z,80.30
2019-03-18T17:15:14.168Z,80.70
2019-03-18T17:17:43.174Z,82.10
2019-03-18T17:20:18.136Z,81.40
2019-03-18T17:22:50.354Z,82.20
2019-03-18T17:25:25.205Z,81.80
2019-03-18T17:27:53.747Z,82.10
2019-03-18T17:30:22.208Z,82.50
2019-03-18T17:32:50.745Z,82.80
2019-03-18T17:35:19.268Z,83.10
2019-03-18T17:37:47.870Z,83.30
2019-03-18T17:40:20.372Z,83.50
2019-03-18T17:42:48.839Z,83.90
2019-03-18T17:45:18.719Z,84.10
2019-03-18T17:47:47.384Z,84.50
2019-03-18T17:50:27.097Z,84.50
2019-03-18T17:53:02.508Z,85.00
2019-03-18T17:55:25.806Z,85.50
2019-03-18T17:57:54.337Z,86.40
2019-03-18T18:00:24.434Z,86.00
2019-03-18T18:02:53.125Z,86.30
2019-03-18T18:05:21.782Z,86.80
2019-03-18T18:07:50.315Z,87.30
2019-03-18T18:10:18.835Z,87.70
2019-03-18T18:12:47.289Z,87.70
2019-03-18T18:15:15.756Z,87.70
2019-03-18T18:17:44.361Z,87.70
2019-03-18T18:20:16.442Z,88.40
2019-03-18T18:22:45.063Z,88.70
2019-03-18T18:25:14.632Z,88.90
2019-03-18T18:27:43.094Z,89.50
2019-03-18T18:30:14.141Z,89.90
2019-03-18T18:32:43.039Z,89.90
2019-03-18T18:35:12.450Z,90.10
2019-03-18T18:37:40.976Z,90.30
2019-03-18T18:40:12.042Z,90.40
2019-03-18T18:42:40.561Z,90.60
2019-03-18T18:45:12.086Z,90.70
2019-03-18T18:47:40.611Z,90.90
2019-03-18T18:50:10.994Z,91.10
2019-03-18T18:52:39.516Z,91.30
2019-03-18T18:55:10.880Z,91.50
2019-03-18T18:57:39.455Z,91.60
2019-03-18T19:00:18.947Z,91.70
2019-03-18T19:02:47.481Z,92.00
2019-03-18T19:05:17.252Z,92.10
2019-03-18T19:07:45.868Z,92.30
2019-03-18T19:10:16.857Z,92.60
2019-03-18T19:12:45.372Z,92.70
2019-03-18T19:15:25.511Z,92.90
2019-03-18T19:17:54.237Z,93.10
2019-03-18T19:20:22.718Z,93.10
2019-03-18T19:22:51.208Z,93.30
2019-03-18T19:25:19.818Z,93.50
2019-03-18T19:27:48.375Z,93.80
2019-03-18T19:30:23.490Z,94.00
2019-03-18T19:32:52.183Z,94.20
2019-03-18T19:35:20.715Z,94.40
2019-03-18T19:37:49.169Z,94.70
2019-03-18T19:40:22.566Z,94.90
2019-03-18T19:42:51.096Z,95.10
2019-03-18T19:45:19.602Z,95.20
2019-03-18T19:47:48.053Z,95.60
2019-03-18T19:50:27.831Z,95.70
2019-03-18T19:52:56.286Z,95.90
2019-03-18T19:55:24.742Z,96.00
2019-03-18T19:57:53.347Z,96.20
2019-03-18T20:00:27.002Z,96.30
2019-03-18T20:02:55.530Z,96.40
2019-03-18T20:05:24.060Z,96.50
2019-03-18T20:07:52.677Z,96.60
2019-03-18T20:10:22.077Z,96.60
2019-03-18T20:12:50.691Z,96.70
2019-03-18T20:15:19.809Z,96.80
2019-03-18T20:17:48.367Z,96.80
2019-03-18T20:20:21.765Z,96.90
2019-03-18T20:22:50.761Z,96.90
2019-03-18T20:25:19.215Z,96.90
2019-03-18T20:27:47.752Z,97.00
2019-03-18T20:30:20.465Z,97.00
2019-03-18T20:32:48.931Z,97.00
2019-03-18T20:35:18.884Z,97.10
2019-03-18T20:37:47.458Z,97.00
2019-03-18T20:40:16.984Z,97.00
2019-03-18T20:42:45.508Z,96.90
2019-03-18T20:45:19.480Z,96.90
2019-03-18T20:47:48.027Z,96.80
2019-03-18T20:50:18.703Z,96.80
2019-03-18T20:52:47.408Z,96.80
2019-03-18T20:55:17.469Z,96.80
2019-03-18T20:57:46.078Z,96.90
2019-03-18T21:00:22.295Z,97.00
2019-03-18T21:02:51.060Z,97.10
2019-03-18T21:05:19.950Z,97.10
2019-03-18T21:07:48.561Z,97.10
2019-03-18T21:10:18.512Z,97.10
2019-03-18T21:12:46.957Z,97.10
2019-03-18T21:15:17.421Z,97.20
2019-03-18T21:17:46.018Z,97.50
2019-03-18T21:20:16.640Z,97.90
2019-03-18T21:22:45.345Z,97.80
2019-03-18T21:25:13.934Z,97.90
2019-03-18T21:27:42.395Z,98.10
2019-03-18T21:30:13.931Z,98.10
2019-03-18T21:32:42.396Z,98.10
2019-03-18T21:35:11.135Z,98.20
2019-03-18T21:37:39.577Z,98.20
2019-03-18T21:40:17.261Z,98.30
2019-03-18T21:42:45.727Z,98.40
2019-03-18T21:45:23.714Z,98.60
2019-03-18T21:47:52.878Z,98.60
2019-03-18T21:50:21.458Z,98.60
2019-03-18T21:52:49.910Z,98.60
2019-03-18T21:55:18.507Z,98.80
2019-03-18T21:57:47.279Z,98.90
2019-03-18T22:00:17.766Z,99.00
2019-03-18T22:02:46.379Z,98.90
2019-03-18T22:05:15.183Z,99.00
2019-03-18T22:07:44.153Z,99.10
2019-03-18T22:10:17.842Z,99.50
2019-03-18T22:12:47.234Z,99.30
2019-03-18T22:15:16.617Z,99.60
2019-03-18T22:17:45.391Z,99.70
2019-03-18T22:20:15.266Z,99.80
2019-03-18T22:22:43.871Z,99.90
2019-03-18T22:25:13.636Z,99.90
2019-03-18T22:27:42.270Z,99.90
2019-03-18T22:30:13.111Z,99.90
2019-03-18T22:32:41.835Z,99.90
2019-03-18T22:35:11.899Z,99.90
2019-03-18T22:37:40.417Z,99.90
2019-03-18T22:40:14.020Z,99.90
2019-03-18T22:42:42.466Z,99.90
2019-03-18T22:45:13.240Z,99.90
2019-03-18T22:47:42.048Z,99.90
2019-03-18T22:50:11.845Z,99.90
2019-03-18T22:52:40.304Z,99.90
2019-03-18T22:55:13.530Z,99.90
2019-03-18T22:57:42.261Z,99.90
2019-03-18T23:00:22.674Z,99.90
2019-03-18T23:02:51.861Z,99.90
2019-03-18T23:05:20.447Z,99.90
2019-03-18T23:07:48.897Z,99.90
2019-03-18T23:10:17.372Z,99.90
2019-03-18T23:12:45.899Z,99.90
2019-03-18T23:15:14.365Z,99.90
2019-03-18T23:17:42.898Z,99.90
2019-03-18T23:20:11.737Z,99.90
2019-03-18T23:22:40.254Z,99.90
2019-03-18T23:25:28.070Z,99.90
2019-03-18T23:27:56.517Z,99.90
2019-03-18T23:30:24.985Z,99.90
2019-03-18T23:32:53.915Z,99.90
2019-03-18T23:35:22.370Z,99.90
2019-03-18T23:37:50.821Z,99.90
2019-03-18T23:40:19.295Z,99.90
2019-03-18T23:42:47.753Z,99.90
2019-03-18T23:45:16.459Z,99.90
2019-03-18T23:47:44.903Z,99.90
2019-03-18T23:50:16.820Z,99.90
2019-03-18T23:52:45.348Z,99.90
2019-03-18T23:55:19.636Z,99.90
2019-03-18T23:57:44.359Z,99.90
